createdAt,value
2018-04-16T00:00:09.136Z,12.61
2018-04-16T00:02:37.343Z,12.61
2018-04-16T00:05:06.106Z,12.80
2018-04-16T00:07:34.135Z,12.67
2018-04-16T00:10:05.343Z,12.74
2018-04-16T00:12:33.422Z,12.72
2018-04-16T00:17:34.544Z,12.59
2018-04-16T00:20:07.642Z,12.54
2018-04-16T00:22:35.667Z,12.77
2018-04-16T00:25:07.115Z,12.67
2018-04-16T00:27:35.128Z,12.69
2018-04-16T00:30:06.252Z,12.75
2018-04-16T00:32:39.839Z,12.62
2018-04-16T00:35:13.669Z,12.46
2018-04-16T00:37:47.289Z,12.56
2018-04-16T00:40:24.847Z,12.47
2018-04-16T00:42:58.538Z,12.38
2018-04-16T00:45:32.110Z,12.42
2018-04-16T00:48:05.637Z,12.45
2018-04-16T00:50:39.234Z,12.11
2018-04-16T00:53:12.947Z,12.15
2018-04-16T00:55:47.275Z,12.17
2018-04-16T00:58:20.962Z,12.17
2018-04-16T01:00:54.440Z,12.19
2018-04-16T01:03:28.112Z,12.23
2018-04-16T01:09:01.765Z,11.97
2018-04-16T01:11:35.176Z,12.01
2018-04-16T01:14:08.849Z,12.00
2018-04-16T01:16:42.295Z,12.03
2018-04-16T01:19:15.842Z,12.03
2018-04-16T01:21:49.426Z,11.88
2018-04-16T01:24:22.935Z,11.88
2018-04-16T01:26:56.404Z,11.81
2018-04-16T01:29:29.915Z,11.74
2018-04-16T01:32:03.414Z,11.80
2018-04-16T01:34:37.006Z,11.79
2018-04-16T01:37:10.660Z,11.71
2018-04-16T01:39:44.327Z,11.65
2018-04-16T01:42:17.823Z,11.62
2018-04-16T01:44:51.508Z,11.75
2018-04-16T01:47:25.040Z,11.54
2018-04-16T01:49:58.752Z,11.51
2018-04-16T01:52:32.256Z,11.49
2018-04-16T01:55:05.847Z,11.36
2018-04-16T01:57:39.379Z,11.45
2018-04-16T02:00:12.906Z,11.51
2018-04-16T02:02:46.412Z,11.42
2018-04-16T02:05:20.206Z,11.26
2018-04-16T02:07:53.699Z,11.31
2018-04-16T02:10:28.059Z,11.16
2018-04-16T02:13:01.583Z,11.11
2018-04-16T02:15:35.259Z,11.17
2018-04-16T02:18:08.655Z,11.13
2018-04-16T02:20:42.315Z,11.22
2018-04-16T02:23:15.825Z,11.23
2018-04-16T02:25:49.326Z,11.18
2018-04-16T02:28:22.812Z,11.23
2018-04-16T02:34:00.590Z,11.07
2018-04-16T02:36:34.224Z,10.97
2018-04-16T02:39:07.772Z,11.14
2018-04-16T02:41:41.816Z,11.01
2018-04-16T02:44:15.285Z,10.82
2018-04-16T02:46:48.923Z,10.78
2018-04-16T02:49:22.419Z,10.84
2018-04-16T02:51:56.100Z,10.96
2018-04-16T02:54:29.590Z,10.92
2018-04-16T02:57:03.147Z,10.86
2018-04-16T02:59:36.959Z,10.74
2018-04-16T03:02:10.647Z,10.56
2018-04-16T03:04:44.195Z,10.62
2018-04-16T03:07:17.753Z,10.47
2018-04-16T03:09:51.232Z,10.62
2018-04-16T03:12:28.664Z,10.59
2018-04-16T03:15:06.119Z,10.68
2018-04-16T03:17:40.023Z,10.62
2018-04-16T03:20:14.289Z,10.61
2018-04-16T03:22:48.060Z,10.61
2018-04-16T03:25:21.465Z,10.48
2018-04-16T03:27:55.398Z,10.30
2018-04-16T03:33:34.217Z,10.33
2018-04-16T03:36:07.771Z,10.35
2018-04-16T03:38:41.299Z,10.31
2018-04-16T03:41:15.189Z,10.19
2018-04-16T03:43:49.156Z,10.15
2018-04-16T03:46:22.716Z,10.10
2018-04-16T03:48:56.267Z,10.12
2018-04-16T03:51:29.697Z,10.05
2018-04-16T03:53:57.919Z,10.12
2018-04-16T03:56:25.963Z,9.91
2018-04-16T03:58:53.972Z,9.80
2018-04-16T04:01:22.283Z,10.03
2018-04-16T04:03:50.231Z,10.09
2018-04-16T04:06:18.257Z,10.04
2018-04-16T04:08:46.277Z,10.09
2018-04-16T04:11:14.297Z,9.80
2018-04-16T04:13:42.309Z,10.00
2018-04-16T04:16:10.343Z,10.01
2018-04-16T04:18:38.371Z,10.07
2018-04-16T04:21:07.548Z,10.13
2018-04-16T04:23:47.278Z,10.02
2018-04-16T04:26:27.173Z,9.93
2018-04-16T04:29:07.669Z,10.00
2018-04-16T04:31:35.707Z,9.79
2018-04-16T04:34:04.014Z,9.95
2018-04-16T04:36:32.081Z,9.82
2018-04-16T04:39:00.111Z,9.84
2018-04-16T04:41:28.119Z,9.75
2018-04-16T04:43:56.110Z,9.88
2018-04-16T04:46:24.550Z,9.80
2018-04-16T04:48:52.547Z,9.97
2018-04-16T04:51:20.591Z,9.95
2018-04-16T04:53:49.292Z,9.94
2018-04-16T04:56:17.314Z,9.85
2018-04-16T04:58:45.514Z,9.88
2018-04-16T05:01:13.508Z,10.16
2018-04-16T05:03:41.540Z,10.02
2018-04-16T05:06:09.545Z,10.13
2018-04-16T05:08:37.566Z,10.20
2018-04-16T05:11:05.801Z,10.30
2018-04-16T05:13:33.971Z,10.38
2018-04-16T05:16:01.998Z,10.34
2018-04-16T05:18:30.697Z,10.45
2018-04-16T05:20:58.686Z,10.72
2018-04-16T05:23:26.858Z,10.77
2018-04-16T05:25:54.870Z,10.87
2018-04-16T05:28:22.887Z,10.98
2018-04-16T05:30:51.014Z,11.04
2018-04-16T05:33:19.162Z,11.06
2018-04-16T05:35:47.175Z,11.24
2018-04-16T05:38:15.191Z,11.49
2018-04-16T05:40:43.250Z,11.27
2018-04-16T05:43:11.264Z,11.29
2018-04-16T05:45:39.272Z,11.31
2018-04-16T05:48:07.471Z,11.46
2018-04-16T05:50:35.753Z,11.61
2018-04-16T05:53:03.759Z,11.63
2018-04-16T05:55:31.788Z,12.05
2018-04-16T05:57:59.813Z,12.55
2018-04-16T06:00:27.875Z,13.02
2018-04-16T06:02:56.038Z,13.32
2018-04-16T06:05:24.119Z,13.11
2018-04-16T06:07:52.402Z,13.04
2018-04-16T06:10:20.428Z,13.62
2018-04-16T06:12:48.932Z,14.22
2018-04-16T06:15:16.952Z,13.74
2018-04-16T06:17:45.587Z,13.54
2018-04-16T06:20:13.629Z,13.64
2018-04-16T06:22:41.627Z,13.67
2018-04-16T06:25:09.663Z,13.67
2018-04-16T06:27:37.692Z,14.38
2018-04-16T06:30:05.709Z,14.77
2018-04-16T06:32:33.743Z,15.18
2018-04-16T06:35:05.675Z,15.34
2018-04-16T06:37:33.654Z,14.90
2018-04-16T06:40:06.487Z,14.90
2018-04-16T06:42:34.508Z,14.36
2018-04-16T06:45:05.692Z,14.10
2018-04-16T06:47:33.722Z,14.06
2018-04-16T06:50:08.148Z,13.96
2018-04-16T06:52:36.179Z,13.94
2018-04-16T06:55:06.035Z,13.73
2018-04-16T06:57:34.146Z,13.80
2018-04-16T07:00:07.825Z,13.81
2018-04-16T07:02:36.456Z,14.06
2018-04-16T07:05:05.793Z,14.50
2018-04-16T07:07:33.819Z,14.50
2018-04-16T07:10:05.042Z,14.83
2018-04-16T07:12:33.007Z,14.73
2018-04-16T07:15:04.040Z,14.52
2018-04-16T07:17:32.639Z,15.11
2018-04-16T07:20:05.551Z,15.37
2018-04-16T07:22:33.822Z,15.42
2018-04-16T07:25:04.951Z,15.23
2018-04-16T07:27:33.003Z,14.95
2018-04-16T07:30:04.371Z,15.09
2018-04-16T07:32:33.046Z,15.34
2018-04-16T07:35:04.795Z,15.19
2018-04-16T07:37:33.317Z,15.19
2018-04-16T07:40:04.467Z,15.00
2018-04-16T07:42:32.555Z,14.76
2018-04-16T07:47:33.130Z,14.66
2018-04-16T07:50:04.415Z,14.85
2018-04-16T07:52:32.493Z,15.47
2018-04-16T07:55:01.944Z,15.93
2018-04-16T07:57:31.553Z,16.26
2018-04-16T07:59:59.849Z,16.78
2018-04-16T08:02:33.593Z,16.83
2018-04-16T08:05:08.115Z,16.43
2018-04-16T08:07:36.133Z,16.73
2018-04-16T08:10:05.774Z,16.25
2018-04-16T08:12:38.886Z,16.07
2018-04-16T08:15:06.901Z,16.11
2018-04-16T08:17:34.904Z,15.79
2018-04-16T08:20:05.990Z,16.31
2018-04-16T08:22:34.035Z,16.42
2018-04-16T08:25:08.821Z,16.64
2018-04-16T08:27:36.834Z,16.82
2018-04-16T08:30:05.955Z,17.45
2018-04-16T08:32:33.983Z,18.09
2018-04-16T08:35:05.532Z,17.91
2018-04-16T08:37:33.550Z,18.53
2018-04-16T08:40:07.304Z,18.43
2018-04-16T08:42:35.761Z,17.69
2018-04-16T08:45:07.793Z,17.97
2018-04-16T08:47:35.803Z,17.30
2018-04-16T08:50:07.166Z,18.61
2018-04-16T08:52:35.214Z,19.26
2018-04-16T08:55:06.318Z,19.04
2018-04-16T08:57:34.349Z,18.32
2018-04-16T09:00:07.900Z,18.19
2018-04-16T09:02:36.513Z,17.24
2018-04-16T09:05:05.952Z,17.11
2018-04-16T09:07:33.978Z,16.56
2018-04-16T09:10:05.347Z,16.59
2018-04-16T09:12:33.366Z,16.71
2018-04-16T09:15:04.575Z,16.80
2018-04-16T09:17:32.586Z,16.73
2018-04-16T09:20:02.032Z,16.70
2018-04-16T09:22:32.417Z,17.05
2018-04-16T09:25:02.061Z,17.08
2018-04-16T09:27:31.643Z,17.23
2018-04-16T09:29:59.663Z,17.39
2018-04-16T09:32:27.721Z,17.32
2018-04-16T09:34:55.896Z,18.03
2018-04-16T09:37:23.906Z,18.29
2018-04-16T09:39:52.933Z,19.32
2018-04-16T09:42:20.958Z,19.85
2018-04-16T09:44:49.066Z,19.33
2018-04-16T09:47:17.138Z,19.80
2018-04-16T09:49:45.128Z,20.44
2018-04-16T09:52:13.153Z,19.16
2018-04-16T09:54:41.185Z,18.80
2018-04-16T09:57:09.444Z,19.29
2018-04-16T09:59:37.577Z,18.72
2018-04-16T10:02:11.180Z,19.48
2018-04-16T10:04:39.190Z,20.08
2018-04-16T10:07:07.211Z,20.58
2018-04-16T10:09:35.279Z,20.79
2018-04-16T10:12:03.337Z,20.15
2018-04-16T10:14:31.374Z,21.16
2018-04-16T10:16:59.614Z,21.84
2018-04-16T10:19:27.631Z,21.93
2018-04-16T10:21:55.679Z,22.64
2018-04-16T10:24:23.708Z,21.24
2018-04-16T10:26:51.747Z,21.94
2018-04-16T10:29:19.764Z,21.89
2018-04-16T10:31:47.770Z,20.70
2018-04-16T10:34:15.862Z,20.52
2018-04-16T10:36:43.908Z,20.87
2018-04-16T10:39:11.901Z,20.26
2018-04-16T10:41:39.910Z,19.85
2018-04-16T10:44:08.118Z,20.16
2018-04-16T10:46:36.212Z,20.18
2018-04-16T10:49:04.258Z,20.49
2018-04-16T10:51:32.272Z,20.26
2018-04-16T10:54:00.308Z,20.86
2018-04-16T10:56:28.966Z,20.08
2018-04-16T10:58:57.212Z,20.34
2018-04-16T11:01:25.467Z,21.24
2018-04-16T11:03:53.487Z,21.22
2018-04-16T11:06:21.491Z,20.28
2018-04-16T11:08:49.557Z,20.54
2018-04-16T11:11:17.558Z,20.65
2018-04-16T11:13:45.566Z,21.11
2018-04-16T11:16:13.616Z,21.05
2018-04-16T11:18:41.644Z,21.54
2018-04-16T11:21:09.667Z,21.49
2018-04-16T11:23:37.664Z,21.43
2018-04-16T11:26:05.707Z,21.90
2018-04-16T11:28:33.704Z,21.97
2018-04-16T11:31:01.757Z,23.72
2018-04-16T11:33:29.760Z,23.62
2018-04-16T11:35:57.887Z,22.47
2018-04-16T11:38:25.910Z,23.24
2018-04-16T11:40:53.909Z,22.64
2018-04-16T11:43:22.149Z,20.86
2018-04-16T11:45:50.171Z,20.21
2018-04-16T11:48:18.175Z,20.24
2018-04-16T11:50:46.191Z,19.19
2018-04-16T11:53:14.199Z,18.89
2018-04-16T11:55:42.455Z,18.89
2018-04-16T11:58:10.495Z,19.47
2018-04-16T12:00:38.517Z,19.03
2018-04-16T12:03:07.233Z,19.37
2018-04-16T12:05:35.519Z,20.15
2018-04-16T12:08:03.549Z,20.85
2018-04-16T12:10:31.588Z,22.20
2018-04-16T12:12:59.906Z,21.95
2018-04-16T12:15:28.169Z,21.65
2018-04-16T12:17:56.506Z,21.09
2018-04-16T12:20:25.167Z,19.87
2018-04-16T12:22:53.459Z,19.98
2018-04-16T12:25:21.723Z,19.74
2018-04-16T12:27:50.195Z,19.82
2018-04-16T12:30:18.406Z,20.40
2018-04-16T12:32:46.695Z,21.08
2018-04-16T12:35:14.984Z,20.98
2018-04-16T12:37:43.646Z,20.87
2018-04-16T12:40:11.887Z,20.42
2018-04-16T12:42:40.184Z,20.47
2018-04-16T12:45:08.494Z,21.11
2018-04-16T12:47:36.797Z,20.68
2018-04-16T12:50:06.756Z,20.62
2018-04-16T12:52:35.031Z,21.00
2018-04-16T12:55:07.028Z,21.31
2018-04-16T12:57:35.321Z,21.43
2018-04-16T13:00:06.152Z,20.71
2018-04-16T13:02:34.815Z,21.01
2018-04-16T13:05:06.972Z,21.24
2018-04-16T13:07:35.275Z,21.11
2018-04-16T13:10:07.701Z,20.86
2018-04-16T13:12:35.975Z,20.55
2018-04-16T13:15:07.999Z,20.25
2018-04-16T13:17:36.575Z,20.43
2018-04-16T13:20:06.648Z,20.04
2018-04-16T13:22:34.982Z,20.08
2018-04-16T13:25:06.987Z,19.84
2018-04-16T13:27:35.348Z,20.64
2018-04-16T13:30:07.364Z,20.72
2018-04-16T13:32:35.663Z,20.29
2018-04-16T13:35:06.978Z,19.99
2018-04-16T13:37:35.264Z,20.53
2018-04-16T13:40:06.831Z,20.49
2018-04-16T13:42:35.115Z,20.61
2018-04-16T13:45:06.467Z,20.99
2018-04-16T13:47:34.957Z,21.04
2018-04-16T13:50:06.694Z,21.35
2018-04-16T13:52:35.761Z,20.64
2018-04-16T13:55:08.028Z,20.69
2018-04-16T13:57:36.326Z,20.41
2018-04-16T14:00:08.212Z,19.82
2018-04-16T14:02:36.485Z,19.41
2018-04-16T14:05:06.295Z,19.33
2018-04-16T14:07:34.587Z,19.30
2018-04-16T14:10:09.703Z,19.07
2018-04-16T14:12:37.954Z,19.02
2018-04-16T14:15:06.670Z,19.02
2018-04-16T14:17:34.951Z,19.01
2018-04-16T14:20:06.779Z,18.94
2018-04-16T14:22:35.072Z,18.97
2018-04-16T14:25:07.071Z,19.07
2018-04-16T14:27:35.503Z,19.40
2018-04-16T14:30:06.095Z,19.81
2018-04-16T14:32:34.397Z,20.41
2018-04-16T14:35:06.468Z,20.20
2018-04-16T14:37:35.403Z,20.22
2018-04-16T14:40:07.116Z,20.65
2018-04-16T14:42:35.441Z,19.82
2018-04-16T14:45:07.809Z,19.67
2018-04-16T14:47:36.118Z,19.30
2018-04-16T14:50:06.113Z,19.00
2018-04-16T14:52:34.388Z,19.27
2018-04-16T14:55:06.304Z,19.78
2018-04-16T14:57:34.569Z,19.60
2018-04-16T15:00:06.001Z,19.92
2018-04-16T15:02:34.312Z,20.02
2018-04-16T15:05:05.914Z,19.69
2018-04-16T15:07:34.424Z,19.23
2018-04-16T15:10:06.113Z,19.25
2018-04-16T15:12:34.802Z,19.01
2018-04-16T15:15:06.799Z,18.89
2018-04-16T15:17:35.113Z,18.97
2018-04-16T15:20:06.207Z,18.53
2018-04-16T15:22:34.484Z,18.54
2018-04-16T15:25:08.753Z,18.63
2018-04-16T15:27:37.035Z,18.88
2018-04-16T15:30:06.477Z,18.85
2018-04-16T15:32:34.754Z,18.96
2018-04-16T15:35:06.288Z,19.09
2018-04-16T15:37:34.552Z,19.27
2018-04-16T15:40:06.547Z,19.43
2018-04-16T15:42:35.363Z,19.48
2018-04-16T15:45:11.653Z,19.42
2018-04-16T15:47:44.904Z,19.53
2018-04-16T15:50:13.319Z,19.44
2018-04-16T15:52:41.578Z,19.66
2018-04-16T15:55:09.878Z,19.45
2018-04-16T15:57:38.151Z,19.24
2018-04-16T16:00:06.466Z,19.17
2018-04-16T16:02:34.770Z,19.25
2018-04-16T16:05:06.320Z,19.51
2018-04-16T16:07:34.610Z,19.55
2018-04-16T16:10:08.989Z,19.39
2018-04-16T16:12:37.249Z,19.42
2018-04-16T16:15:07.105Z,19.04
2018-04-16T16:17:35.367Z,18.74
2018-04-16T16:20:08.098Z,18.98
2018-04-16T16:22:36.498Z,18.53
2018-04-16T16:25:06.332Z,18.43
2018-04-16T16:27:38.458Z,18.27
2018-04-16T16:30:06.755Z,18.17
2018-04-16T16:32:35.051Z,18.22
2018-04-16T16:35:06.450Z,18.32
2018-04-16T16:37:34.759Z,18.44
2018-04-16T16:40:09.839Z,18.27
2018-04-16T16:42:43.610Z,18.28
2018-04-16T16:45:11.891Z,18.44
2018-04-16T16:47:40.508Z,18.71
2018-04-16T16:50:08.773Z,18.90
2018-04-16T16:52:37.078Z,18.67
2018-04-16T16:55:06.555Z,18.43
2018-04-16T16:57:35.120Z,18.43
2018-04-16T17:00:07.143Z,18.37
2018-04-16T17:02:35.632Z,18.12
2018-04-16T17:05:06.759Z,18.01
2018-04-16T17:07:35.047Z,17.93
2018-04-16T17:10:06.540Z,17.84
2018-04-16T17:12:34.828Z,17.91
2018-04-16T17:15:06.253Z,17.80
2018-04-16T17:17:34.560Z,18.11
2018-04-16T17:20:06.475Z,18.07
2018-04-16T17:22:35.338Z,17.81
2018-04-16T17:25:06.380Z,17.68
2018-04-16T17:27:34.754Z,17.83
2018-04-16T17:30:09.838Z,17.94
2018-04-16T17:32:38.788Z,17.99
2018-04-16T17:35:07.759Z,17.76
2018-04-16T17:37:36.105Z,17.96
2018-04-16T17:40:08.125Z,17.92
2018-04-16T17:42:36.445Z,17.89
2018-04-16T17:45:09.466Z,17.76
2018-04-16T17:47:37.991Z,17.66
2018-04-16T17:50:06.560Z,17.59
2018-04-16T17:52:34.851Z,17.80
2018-04-16T17:55:06.392Z,17.64
2018-04-16T17:57:34.964Z,17.36
2018-04-16T18:00:06.460Z,17.36
2018-04-16T18:02:34.759Z,17.48
2018-04-16T18:05:09.684Z,17.28
2018-04-16T18:07:38.513Z,17.28
2018-04-16T18:10:07.545Z,17.33
2018-04-16T18:12:35.858Z,17.19
2018-04-16T18:15:07.843Z,17.13
2018-04-16T18:17:37.109Z,17.00
2018-04-16T18:20:06.630Z,17.12
2018-04-16T18:22:34.927Z,17.09
2018-04-16T18:25:06.391Z,17.00
2018-04-16T18:27:34.689Z,16.79
2018-04-16T18:30:06.220Z,16.63
2018-04-16T18:32:34.803Z,16.63
2018-04-16T18:35:09.938Z,16.57
2018-04-16T18:37:38.508Z,16.41
2018-04-16T18:40:06.766Z,16.35
2018-04-16T18:42:35.565Z,16.34
2018-04-16T18:45:06.443Z,16.20
2018-04-16T18:47:35.030Z,15.75
2018-04-16T18:50:08.936Z,15.82
2018-04-16T18:52:37.253Z,15.79
2018-04-16T18:55:06.600Z,15.52
2018-04-16T18:57:34.911Z,15.26
2018-04-16T19:00:10.276Z,15.06
2018-04-16T19:02:38.868Z,15.02
2018-04-16T19:05:07.246Z,15.00
2018-04-16T19:07:35.562Z,15.09
2018-04-16T19:10:06.418Z,15.12
2018-04-16T19:12:35.432Z,15.30
2018-04-16T19:15:06.508Z,15.16
2018-04-16T19:17:40.286Z,15.07
2018-04-16T19:20:08.575Z,15.05
2018-04-16T19:22:36.987Z,14.84
2018-04-16T19:25:07.102Z,14.91
2018-04-16T19:27:40.922Z,14.84
2018-04-16T19:30:09.269Z,14.95
2018-04-16T19:32:43.250Z,14.77
2018-04-16T19:35:11.552Z,14.86
2018-04-16T19:37:39.834Z,14.67
2018-04-16T19:40:08.115Z,14.53
2018-04-16T19:42:41.346Z,14.49
2018-04-16T19:45:09.894Z,14.31
2018-04-16T19:47:38.399Z,14.28
2018-04-16T19:50:06.771Z,14.26
2018-04-16T19:52:35.067Z,14.11
2018-04-16T19:55:06.506Z,14.18
2018-04-16T19:57:40.325Z,14.29
2018-04-16T20:00:08.683Z,14.27
2018-04-16T20:02:42.663Z,14.21
2018-04-16T20:05:10.997Z,14.08
2018-04-16T20:07:39.293Z,13.95
2018-04-16T20:10:07.965Z,13.99
2018-04-16T20:12:36.617Z,13.97
2018-04-16T20:15:06.509Z,13.95
2018-04-16T20:17:34.826Z,13.76
2018-04-16T20:20:07.010Z,13.49
2018-04-16T20:22:35.371Z,13.64
2018-04-16T20:25:06.573Z,13.70
2018-04-16T20:27:34.897Z,13.60
2018-04-16T20:30:10.033Z,13.51
2018-04-16T20:32:38.341Z,13.45
2018-04-16T20:35:06.630Z,13.55
2018-04-16T20:37:34.950Z,13.66
2018-04-16T20:40:06.768Z,13.69
2018-04-16T20:42:35.396Z,13.51
2018-04-16T20:45:06.711Z,13.47
2018-04-16T20:47:35.023Z,13.33
2018-04-16T20:50:06.953Z,13.29
2018-04-16T20:52:35.275Z,13.20
2018-04-16T20:55:07.140Z,13.18
2018-04-16T20:57:35.458Z,13.18
2018-04-16T21:00:07.160Z,13.21
2018-04-16T21:02:35.700Z,13.16
2018-04-16T21:05:05.845Z,13.15
2018-04-16T21:07:34.793Z,13.14
2018-04-16T21:10:06.790Z,13.16
2018-04-16T21:12:35.073Z,13.15
2018-04-16T21:15:07.051Z,13.15
2018-04-16T21:17:35.635Z,13.05
2018-04-16T21:20:07.506Z,12.90
2018-04-16T21:22:35.805Z,12.92
2018-04-16T21:25:05.900Z,13.06
2018-04-16T21:27:34.195Z,12.86
2018-04-16T21:30:05.626Z,12.67
2018-04-16T21:32:33.928Z,12.74
2018-04-16T21:35:09.337Z,12.81
2018-04-16T21:37:37.798Z,12.83
2018-04-16T21:40:06.104Z,12.79
2018-04-16T21:42:35.272Z,12.63
2018-04-16T21:45:07.409Z,12.70
2018-04-16T21:47:36.943Z,12.57
2018-04-16T21:50:06.036Z,12.49
2018-04-16T21:52:34.332Z,12.41
2018-04-16T21:55:06.192Z,12.21
2018-04-16T21:57:34.464Z,12.19
2018-04-16T22:00:05.762Z,12.15
2018-04-16T22:02:34.020Z,12.13
2018-04-16T22:05:05.688Z,12.20
2018-04-16T22:07:33.966Z,12.21
2018-04-16T22:10:06.203Z,12.20
2018-04-16T22:12:34.478Z,11.94
2018-04-16T22:15:05.912Z,11.80
2018-04-16T22:17:34.351Z,11.80
2018-04-16T22:20:06.467Z,11.74
2018-04-16T22:22:34.797Z,11.57
2018-04-16T22:25:06.730Z,11.46
2018-04-16T22:27:35.014Z,11.65
2018-04-16T22:30:07.126Z,11.44
2018-04-16T22:32:35.428Z,11.39
2018-04-16T22:35:07.427Z,11.46
2018-04-16T22:37:35.753Z,11.43
2018-04-16T22:40:06.259Z,11.24
2018-04-16T22:42:34.578Z,11.24
2018-04-16T22:45:05.743Z,11.18
2018-04-16T22:47:34.060Z,11.29
2018-04-16T22:50:06.943Z,11.41
2018-04-16T22:52:35.244Z,11.31
2018-04-16T22:55:06.782Z,11.33
2018-04-16T22:57:35.051Z,11.37
2018-04-16T23:00:07.171Z,11.32
2018-04-16T23:02:35.457Z,11.24
2018-04-16T23:05:07.246Z,11.20
2018-04-16T23:07:35.903Z,11.13
2018-04-16T23:10:06.658Z,11.13
2018-04-16T23:12:34.935Z,11.18
2018-04-16T23:15:06.800Z,11.20
2018-04-16T23:17:35.275Z,11.06
2018-04-16T23:20:05.832Z,10.92
2018-04-16T23:22:34.332Z,10.80
2018-04-16T23:25:06.544Z,10.69
2018-04-16T23:27:34.828Z,10.76
2018-04-16T23:30:06.209Z,10.66
2018-04-16T23:32:34.506Z,10.67
2018-04-16T23:35:08.436Z,10.56
2018-04-16T23:37:36.714Z,10.62
2018-04-16T23:40:06.230Z,10.59
2018-04-16T23:42:34.527Z,10.60
2018-04-16T23:45:06.125Z,10.53
2018-04-16T23:47:34.422Z,10.46
2018-04-16T23:50:05.926Z,10.45
2018-04-16T23:52:34.222Z,10.37
2018-04-16T23:55:09.239Z,10.28
2018-04-16T23:57:37.544Z,10.27
